Map

Track Data

SID SEASON NUMBER BASIN SUBBASIN NAME ISO_TIME NATURE LAT LON WMO_WIND WMO_PRES WMO_AGENCY TRACK_TYPE DIST2LAND LANDFALL IFLAG USA_AGENCY USA_ATCF_ID USA_LAT USA_LON USA_RECORD USA_STATUS USA_WIND USA_PRES USA_SSHS USA_R34_NE USA_R34_SE USA_R34_SW USA_R34_NW USA_R50_NE USA_R50_SE USA_R50_SW USA_R50_NW USA_R64_NE USA_R64_SE USA_R64_SW USA_R64_NW USA_POCI USA_ROCI USA_RMW USA_EYE TOKYO_LAT TOKYO_LON TOKYO_GRADE TOKYO_WIND TOKYO_PRES TOKYO_R50_DIR TOKYO_R50_LONG TOKYO_R50_SHORT TOKYO_R30_DIR TOKYO_R30_LONG TOKYO_R30_SHORT TOKYO_LAND CMA_LAT CMA_LON CMA_CAT CMA_WIND CMA_PRES HKO_LAT HKO_LON HKO_CAT HKO_WIND HKO_PRES NEWDELHI_LAT NEWDELHI_LON NEWDELHI_GRADE NEWDELHI_WIND NEWDELHI_PRES NEWDELHI_CI NEWDELHI_DP NEWDELHI_POCI REUNION_LAT REUNION_LON REUNION_TYPE REUNION_WIND REUNION_PRES REUNION_TNUM REUNION_CI REUNION_RMW REUNION_R34_NE REUNION_R34_SE REUNION_R34_SW REUNION_R34_NW REUNION_R50_NE REUNION_R50_SE REUNION_R50_SW REUNION_R50_NW REUNION_R64_NE REUNION_R64_SE REUNION_R64_SW REUNION_R64_NW BOM_LAT BOM_LON BOM_TYPE BOM_WIND BOM_PRES BOM_TNUM BOM_CI BOM_RMW BOM_R34_NE BOM_R34_SE BOM_R34_SW BOM_R34_NW BOM_R50_NE BOM_R50_SE BOM_R50_SW BOM_R50_NW BOM_R64_NE BOM_R64_SE BOM_R64_SW BOM_R64_NW BOM_ROCI BOM_POCI BOM_EYE BOM_POS_METHOD BOM_PRES_METHOD NADI_LAT NADI_LON NADI_CAT NADI_WIND NADI_PRES WELLINGTON_LAT WELLINGTON_LON WELLINGTON_WIND WELLINGTON_PRES DS824_LAT DS824_LON DS824_STAGE DS824_WIND DS824_PRES TD9636_LAT TD9636_LON TD9636_STAGE TD9636_WIND TD9636_PRES TD9635_LAT TD9635_LON TD9635_WIND TD9635_PRES TD9635_ROCI NEUMANN_LAT NEUMANN_LON NEUMANN_CLASS NEUMANN_WIND NEUMANN_PRES MLC_LAT MLC_LON MLC_CLASS MLC_WIND MLC_PRES USA_GUST BOM_GUST BOM_GUST_PER REUNION_GUST REUNION_GUST_PER USA_SEAHGT USA_SEARAD_NE USA_SEARAD_SE USA_SEARAD_SW USA_SEARAD_NW STORM_SPEED STORM_DIR
1916267N19129 1916 52 WP MM NOT_NAMED 1916-09-22 22:00:00 NR 18.8000 128.700 main 675 633 __________O___ -1 18.8000 128.700 2 11 268
1916267N19129 1916 52 WP MM NOT_NAMED 1916-09-23 00:00:00 NR 18.7880 128.318 main 633 581 __________P___ -1 18.7880 128.318 2 11 268
1916267N19129 1916 52 WP MM NOT_NAMED 1916-09-23 03:00:00 NR 18.7674 127.756 main 581 517 __________P___ -1 18.7674 127.756 2 10 267
1916267N19129 1916 52 WP MM NOT_NAMED 1916-09-23 06:00:00 NR 18.7424 127.226 main 517 465 __________P___ -1 18.7424 127.226 2 10 267
1916267N19129 1916 52 WP MM NOT_NAMED 1916-09-23 09:00:00 NR 18.7117 126.746 main 465 454 __________P___ -1 18.7117 126.746 2 9 266
1916267N19129 1916 52 WP MM NOT_NAMED 1916-09-23 10:00:00 NR 18.7000 126.600 main 454 423 __________O___ -1 18.7000 126.600 2 8 265
1916267N19129 1916 52 WP MM NOT_NAMED 1916-09-23 12:00:00 NR 18.6747 126.331 main 423 390 __________P___ -1 18.6747 126.331 2 7 264
1916267N19129 1916 52 WP MM NOT_NAMED 1916-09-23 15:00:00 NR 18.6370 125.967 main 390 348 __________P___ -1 18.6370 125.967 2 7 264
1916267N19129 1916 52 WP MM NOT_NAMED 1916-09-23 18:00:00 NR 18.6083 125.615 main 348 306 __________P___ -1 18.6083 125.615 2 7 267
1916267N19129 1916 52 WP MM NOT_NAMED 1916-09-23 21:00:00 NR 18.5979 125.238 main 306 296 __________P___ -1 18.5979 125.238 2 7 269
1916267N19129 1916 52 WP MM NOT_NAMED 1916-09-23 22:00:00 NR 18.6000 125.100 main 296 264 __________O___ -1 18.6000 125.100 2 9 272
1916267N19129 1916 52 WP MM NOT_NAMED 1916-09-24 00:00:00 NR 18.6109 124.789 main 264 212 __________P___ -1 18.6109 124.789 2 9 273
1916267N19129 1916 52 WP MM NOT_NAMED 1916-09-24 03:00:00 NR 18.6461 124.286 main 212 151 __________P___ -1 18.6461 124.286 2 10 275
1916267N19129 1916 52 WP MM NOT_NAMED 1916-09-24 06:00:00 NR 18.7010 123.748 main 151 104 __________P___ -1 18.7010 123.748 2 10 277
1916267N19129 1916 52 WP MM NOT_NAMED 1916-09-24 09:00:00 NR 18.7728 123.189 main 104 86 __________P___ -1 18.7728 123.189 2 11 278
1916267N19129 1916 52 WP MM NOT_NAMED 1916-09-24 10:00:00 NR 18.8000 123.000 main 86 61 __________O___ -1 18.8000 123.000 2 11 280
1916267N19129 1916 52 WP MM NOT_NAMED 1916-09-24 12:00:00 NR 18.8659 122.608 main 64 55 __________P___ -1 18.8659 122.608 2 12 281
1916267N19129 1916 52 WP MM NOT_NAMED 1916-09-24 15:00:00 NR 18.9777 122.005 main 67 59 __________P___ -1 18.9777 122.005 2 12 281
1916267N19129 1916 52 WP MM NOT_NAMED 1916-09-24 18:00:00 NR 19.0879 121.415 main 67 59 __________P___ -1 19.0879 121.415 2 11 281
1916267N19129 1916 52 WP MM NOT_NAMED 1916-09-24 21:00:00 NR 19.1778 120.868 main 67 67 __________P___ -1 19.1778 120.868 2 10 279
1916267N19129 1916 52 WP MM NOT_NAMED 1916-09-24 22:00:00 NR 19.2000 120.700 main 67 67 __________O___ -1 19.2000 120.700 2 9 276
1916267N19129 1916 52 WP MM NOT_NAMED 1916-09-25 00:00:00 NR 19.2273 120.407 main 79 79 __________P___ -1 19.2273 120.407 2 8 274
1916267N19129 1916 52 WP MM NOT_NAMED 1916-09-25 03:00:00 NR 19.2438 120.018 main 107 107 __________P___ -1 19.2438 120.018 2 7 271
1916267N19129 1916 52 WP MM NOT_NAMED 1916-09-25 06:00:00 NR 19.2365 119.664 main 130 138 __________P___ -1 19.2365 119.664 2 7 267
1916267N19129 1916 52 WP MM NOT_NAMED 1916-09-25 09:00:00 NR 19.2113 119.318 main 163 163 __________P___ -1 19.2113 119.318 2 7 265
1916267N19129 1916 52 WP MM NOT_NAMED 1916-09-25 10:00:00 NR 19.2000 119.200 main 172 172 __________O___ -1 19.2000 119.200 2 7 266
1916267N19129 1916 52 WP MM NOT_NAMED 1916-09-25 12:00:00 NR 19.1833 118.931 main 200 200 __________P___ -1 19.1833 118.931 2 8 265
1916267N19129 1916 52 WP MM NOT_NAMED 1916-09-25 15:00:00 NR 19.1458 118.521 main 234 234 __________P___ -1 19.1458 118.521 2 8 263
1916267N19129 1916 52 WP MM NOT_NAMED 1916-09-25 18:00:00 NR 19.0934 118.115 main 274 274 __________P___ -1 19.0934 118.115 2 8 261
1916267N19129 1916 52 WP MM NOT_NAMED 1916-09-25 21:00:00 NR 19.0258 117.725 main 311 311 __________P___ -1 19.0258 117.725 2 7 259
1916267N19129 1916 52 WP MM NOT_NAMED 1916-09-25 22:00:00 NR 19.0000 117.600 main 321 321 __________O___ -1 19.0000 117.600 2 7 255
1916267N19129 1916 52 WP MM NOT_NAMED 1916-09-26 00:00:00 NR 18.9366 117.363 main 338 348 __________P___ -1 18.9366 117.363 2 7 252
1916267N19129 1916 52 WP MM NOT_NAMED 1916-09-26 03:00:00 NR 18.8290 117.028 main 373 373 __________P___ -1 18.8290 117.028 2 7 251
1916267N19129 1916 52 WP MM NOT_NAMED 1916-09-26 06:00:00 NR 18.7202 116.709 main 399 399 __________P___ -1 18.7202 116.709 2 6 251
1916267N19129 1916 52 WP MM NOT_NAMED 1916-09-26 09:00:00 NR 18.6256 116.401 main 427 427 __________P___ -1 18.6256 116.401 2 6 253
1916267N19129 1916 52 WP MM NOT_NAMED 1916-09-26 10:00:00 NR 18.6000 116.300 main 437 437 __________O___ -1 18.6000 116.300 2 6 258
1916267N19129 1916 52 WP MM NOT_NAMED 1916-09-26 12:00:00 NR 18.5633 116.102 main 453 450 __________P___ -1 18.5633 116.102 2 6 261
1916267N19129 1916 52 WP MM NOT_NAMED 1916-09-26 15:00:00 NR 18.5273 115.812 main 452 442 __________P___ -1 18.5273 115.812 2 6 264
1916267N19129 1916 52 WP MM NOT_NAMED 1916-09-26 18:00:00 NR 18.5087 115.518 main 442 435 __________P___ -1 18.5087 115.518 2 6 267
1916267N19129 1916 52 WP MM NOT_NAMED 1916-09-26 21:00:00 NR 18.5011 115.209 main 435 433 __________P___ -1 18.5011 115.209 2 6 269
1916267N19129 1916 52 WP MM NOT_NAMED 1916-09-26 22:00:00 NR 18.5000 115.100 main 433 427 __________O___ -1 18.5000 115.100 2 6 269
1916267N19129 1916 52 WP MM NOT_NAMED 1916-09-27 00:00:00 NR 18.4942 114.870 main 427 387 __________P___ -1 18.4942 114.870 2 7 269
1916267N19129 1916 52 WP MM NOT_NAMED 1916-09-27 03:00:00 NR 18.4919 114.506 main 387 348 __________P___ -1 18.4919 114.506 2 7 270
1916267N19129 1916 52 WP MM NOT_NAMED 1916-09-27 06:00:00 NR 18.4944 114.124 main 348 309 __________P___ -1 18.4944 114.124 2 7 271
1916267N19129 1916 52 WP MM NOT_NAMED 1916-09-27 09:00:00 NR 18.4987 113.732 main 309 299 __________P___ -1 18.4987 113.732 2 7 271
1916267N19129 1916 52 WP MM NOT_NAMED 1916-09-27 10:00:00 NR 18.5000 113.600 main 299 271 __________O___ -1 18.5000 113.600 2 7 270
1916267N19129 1916 52 WP MM NOT_NAMED 1916-09-27 12:00:00 NR 18.4998 113.342 main 271 234 __________P___ -1 18.4998 113.342 2 7 270
1916267N19129 1916 52 WP MM NOT_NAMED 1916-09-27 15:00:00 NR 18.4997 112.948 main 234 199 __________P___ -1 18.4997 112.948 2 8 270
1916267N19129 1916 52 WP MM NOT_NAMED 1916-09-27 18:00:00 NR 18.4997 112.547 main 199 167 __________P___ -1 18.4997 112.547 2 8 270
1916267N19129 1916 52 WP MM NOT_NAMED 1916-09-27 21:00:00 NR 18.4999 112.138 main 167 157 __________P___ -1 18.4999 112.138 2 8 270
1916267N19129 1916 52 WP MM NOT_NAMED 1916-09-27 22:00:00 NR 18.5000 112.000 main 157 128 __________O___ -1 18.5000 112.000 2 8 270
1916267N19129 1916 52 WP MM NOT_NAMED 1916-09-28 00:00:00 NR 18.5025 111.722 main 128 90 __________P___ -1 18.5025 111.722 2 8 271
1916267N19129 1916 52 WP MM NOT_NAMED 1916-09-28 03:00:00 NR 18.5063 111.300 main 90 53 __________P___ -1 18.5063 111.300 2 8 270
1916267N19129 1916 52 WP MM NOT_NAMED 1916-09-28 06:00:00 NR 18.5076 110.872 main 53 22 __________P___ -1 18.5076 110.872 2 8 270
1916267N19129 1916 52 WP MM NOT_NAMED 1916-09-28 09:00:00 NR 18.5033 110.443 main 22 15 __________P___ -1 18.5033 110.443 2 8 269
1916267N19129 1916 52 WP MM NOT_NAMED 1916-09-28 10:00:00 NR 18.5000 110.300 main 15 0 __________O___ -1 18.5000 110.300 2 8 268
1916267N19129 1916 52 WP MM NOT_NAMED 1916-09-28 12:00:00 NR 18.4904 110.015 main 0 0 __________P___ -1 18.4904 110.015 2 8 267
1916267N19129 1916 52 WP MM NOT_NAMED 1916-09-28 15:00:00 NR 18.4692 109.589 main 0 0 __________P___ -1 18.4692 109.589 2 8 267
1916267N19129 1916 52 WP MM NOT_NAMED 1916-09-28 18:00:00 NR 18.4420 109.165 main 0 0 __________P___ -1 18.4420 109.165 2 8 266
1916267N19129 1916 52 WP MM NOT_NAMED 1916-09-28 21:00:00 NR 18.4109 108.741 main 11 11 __________P___ -1 18.4109 108.741 2 8 266
1916267N19129 1916 52 WP MM NOT_NAMED 1916-09-28 22:00:00 NR 18.4000 108.600 main 15 __________O___ -1 18.4000 108.600 2 8 265

Digital Typhoon Data and Search

About IBTrACS Database

This database is a web-friendly format of International Best Track Archive for Climate Stewardship (IBTrACS), a global best track data archive curated by NOAA dating back to 1842.

Updated: 2021-10-08